Saronic Champion — A8XF5 — position and weather

sailwx.info

Track history (hours):
 
Tides and Currents Weather Stations Pressure Air Temp Water Temp Dewpoint Dewpoint Depression Visibility Wind Speed Wind Dir Waves Ship Positions

Saronic Champion

Last reported at 2015-Apr-18 20:33 UTC. Time now 2015-May-06 20:32 UTC.
Position N 36°04' W 005°23'.
Warning: this ship's position is 17 days out of date.

Length 229 m; draft 7.9 m.

Type: Cargo ship. MMSI: 636014887.

Date/timePositionNaut miles runAvg speedWind from/ knotsBaromVisibWave heightAir tempDewpointWater temp
2015-Apr-18 20:33N 36°04' W 005°23'3 3.4
2015-Apr-18 19:33N 36°08' W 005°23'0 0.0
2015-Apr-18 18:30N 36°08' W 005°23'0 0.1
2015-Apr-18 16:27N 36°08' W 005°23'0 0.1
2015-Apr-18 15:15N 36°08' W 005°23'0 0.0
2015-Apr-18 14:27N 36°08' W 005°23'0 0.1
2015-Apr-18 13:33N 36°08' W 005°23'0 0.1
2015-Apr-18 12:27N 36°08' W 005°23'0 0.3
2015-Apr-18 11:30N 36°07' W 005°23'3 3.4
2015-Apr-18 10:33N 36°06' W 005°19'2 2.2
2015-Apr-18 09:32N 36°07' W 005°16'21013.0
2015-Apr-17 17:19N 36°34' W 000°57'1013.1
2015-Apr-17 16:32N 36°36' W 000°45'36612.6
2015-Apr-16 11:24N 37°28' E 006°49'2613.1
2015-Apr-16 09:26N 37°32' E 007°22'1313.2
2015-Apr-16 08:26N 37°34' E 007°38'18812.6
2015-Apr-15 17:29N 37°19' E 011°34'1513.4
2015-Apr-15 16:22N 37°12' E 011°51'1113.3
2015-Apr-15 15:33N 37°07' E 012°03'1313.2
2015-Apr-15 14:33N 37°01' E 012°17'1312.6
2015-Apr-15 13:33N 36°55' E 012°31'1612.9
2015-Apr-15 12:19N 36°48' E 012°49'1013.2
2015-Apr-15 11:33N 36°43' E 013°00'1313.2
2015-Apr-15 10:33N 36°37' E 013°15'1313.5
2015-Apr-15 09:33N 36°31' E 013°30'1313.0
2015-Apr-15 08:33N 36°25' E 013°44'1312.5
2015-Apr-15 07:33N 36°19' E 013°58'1313.2
2015-Apr-15 06:33N 36°13' E 014°12'1313.2
2015-Apr-15 05:33N 36°03' E 014°24'11 8.9
2015-Apr-15 04:22N 35°58' E 014°35'5 6.3
2015-Apr-15 03:33N 36°01' E 014°40'10 9.8
2015-Apr-15 02:33N 36°08' E 014°48'1611.7
2015-Apr-15 01:09N 36°20' E 015°01'25812.5
2015-Apr-14 04:28N 39°41' E 018°28'1213.1
2015-Apr-14 03:33N 39°51' E 018°35'1212.3
2015-Apr-14 02:33N 40°03' E 018°41'1313.1
2015-Apr-14 01:33N 40°15' E 018°38'1312.9
2015-Apr-14 00:33N 40°28' E 018°35'  
Track history (hours):
 
Tides and Currents Weather Stations Pressure Air Temp Water Temp Dewpoint Dewpoint Depression Visibility Wind Speed Wind Dir Waves Ship Positions

Saronic Champion

Last reported at 2015-Apr-18 20:33 UTC. Time now 2015-May-06 20:32 UTC.
Position N 36°04' W 005°23'.
Warning: this ship's position is 17 days out of date.

Length 229 m; draft 7.9 m.

Type: Cargo ship. MMSI: 636014887.

Date/timePositionNaut miles runAvg speedWind from/ knotsBaromVisibWave heightAir tempDewpointWater temp
2015-Apr-18 20:33N 36°04' W 005°23'3 3.4
2015-Apr-18 19:33N 36°08' W 005°23'0 0.0
2015-Apr-18 18:30N 36°08' W 005°23'0 0.1
2015-Apr-18 16:27N 36°08' W 005°23'0 0.1
2015-Apr-18 15:15N 36°08' W 005°23'0 0.0
2015-Apr-18 14:27N 36°08' W 005°23'0 0.1
2015-Apr-18 13:33N 36°08' W 005°23'0 0.1
2015-Apr-18 12:27N 36°08' W 005°23'0 0.3
2015-Apr-18 11:30N 36°07' W 005°23'3 3.4
2015-Apr-18 10:33N 36°06' W 005°19'2 2.2
2015-Apr-18 09:32N 36°07' W 005°16'21013.0
2015-Apr-17 17:19N 36°34' W 000°57'1013.1
2015-Apr-17 16:32N 36°36' W 000°45'36612.6
2015-Apr-16 11:24N 37°28' E 006°49'2613.1
2015-Apr-16 09:26N 37°32' E 007°22'1313.2
2015-Apr-16 08:26N 37°34' E 007°38'18812.6
2015-Apr-15 17:29N 37°19' E 011°34'1513.4
2015-Apr-15 16:22N 37°12' E 011°51'1113.3
2015-Apr-15 15:33N 37°07' E 012°03'1313.2
2015-Apr-15 14:33N 37°01' E 012°17'1312.6
2015-Apr-15 13:33N 36°55' E 012°31'1612.9
2015-Apr-15 12:19N 36°48' E 012°49'1013.2
2015-Apr-15 11:33N 36°43' E 013°00'1313.2
2015-Apr-15 10:33N 36°37' E 013°15'1313.5
2015-Apr-15 09:33N 36°31' E 013°30'1313.0
2015-Apr-15 08:33N 36°25' E 013°44'1312.5
2015-Apr-15 07:33N 36°19' E 013°58'1313.2
2015-Apr-15 06:33N 36°13' E 014°12'1313.2
2015-Apr-15 05:33N 36°03' E 014°24'11 8.9
2015-Apr-15 04:22N 35°58' E 014°35'5 6.3
2015-Apr-15 03:33N 36°01' E 014°40'10 9.8
2015-Apr-15 02:33N 36°08' E 014°48'1611.7
2015-Apr-15 01:09N 36°20' E 015°01'25812.5
2015-Apr-14 04:28N 39°41' E 018°28'1213.1
2015-Apr-14 03:33N 39°51' E 018°35'1212.3
2015-Apr-14 02:33N 40°03' E 018°41'1313.1
2015-Apr-14 01:33N 40°15' E 018°38'1312.9
2015-Apr-14 00:33N 40°28' E 018°35'  

Dump ship's entire track history